Погода Троицкийна 2 недели

Могилёвская область, Белоруссия

22 мая-04 июня
  • 22мая
    Сегодня
    +12°
    +23°
    Небольшая облачность, возможен дождь с грозой
    ВремяПогодаТемператураВлажностьДавлениеВетер, м/сВероятность осадков
    00:00Облачно с прояснениями+15°C83 %751 мм2.7 м/с2 %
    03:00Облачно с прояснениями+13°C87 %751 мм2.7 м/с3 %
    06:00Облачно с прояснениями+13°C89 %752 мм2.2 м/с6 %
    09:00Ясно и безоблачно+18°C79 %752 мм1.6 м/с2 %
    12:00Небольшая облачность+23°C63 %752 мм2.2 м/с12 %
    15:00Небольшая облачность, возможен дождь с грозой+23°C63 %751 мм2.4 м/с56 %
    18:00Небольшая облачность, ливень+20°C79 %751 мм2.5 м/с60 %
    21:00Облачно с прояснениями+17°C88 %752 мм2.4 м/с3 %
  • 23мая
    Четверг
    +11°
    +23°
    Ясно и безоблачно
    ВремяПогодаТемператураВлажностьДавлениеВетер, м/сВероятность осадков
    00:00Небольшая облачность+15°C93 %752 мм3.1 м/с2 %
    03:00Практически безоблачно+14°C95 %753 мм3.2 м/с2 %
    06:00Ясно и безоблачно+13°C94 %754 мм4.1 м/с1 %
    09:00Ясно и безоблачно+18°C79 %754 мм4.7 м/с1 %
    12:00Ясно и безоблачно+22°C61 %755 мм5.8 м/с5 %
    15:00Ясно и безоблачно+23°C53 %755 мм6.2 м/с10 %
    18:00Ясно и безоблачно+22°C52 %755 мм5.9 м/с14 %
    21:00Ясно и безоблачно+18°C59 %756 мм5.2 м/с2 %
  • 24мая
    Пятница
    +10°
    +22°
    Ясно и безоблачно
    ВремяПогодаТемператураВлажностьДавлениеВетер, м/сВероятность осадков
    00:00Ясно и безоблачно+16°C67 %757 мм5.1 м/с2 %
    03:00Ясно и безоблачно+13°C67 %758 мм4.9 м/с2 %
    06:00Ясно и безоблачно+11°C65 %758 мм5.0 м/с1 %
    09:00Ясно и безоблачно+16°C58 %759 мм4.8 м/с2 %
    12:00Ясно и безоблачно+20°C52 %759 мм4.9 м/с2 %
    15:00Ясно и безоблачно+21°C47 %759 мм4.9 м/с2 %
    18:00Ясно и безоблачно+21°C48 %758 мм4.8 м/с2 %
    21:00Ясно и безоблачно+17°C62 %758 мм3.4 м/с2 %
  • 25мая
    Суббота
    +10°
    +23°
    Ясно и безоблачно
    ВремяПогодаТемператураВлажностьДавлениеВетер, м/сВероятность осадков
    00:00Ясно и безоблачно+14°C71 %758 мм3.6 м/с2 %
    03:00Ясно и безоблачно+12°C74 %758 мм3.8 м/с2 %
    06:00Ясно и безоблачно+10°C72 %758 мм3.8 м/с2 %
    09:00Ясно и безоблачно+16°C55 %758 мм3.8 м/с2 %
    12:00Ясно и безоблачно+21°C45 %758 мм4.1 м/с3 %
    15:00Ясно и безоблачно+23°C40 %757 мм4.2 м/с5 %
    18:00Ясно и безоблачно+22°C43 %757 мм3.7 м/с8 %
    21:00Ясно и безоблачно+17°C63 %756 мм2.3 м/с2 %
  • 26мая
    Воскресенье
    +9°
    +23°
    Небольшая облачность
    ВремяПогодаТемператураВлажностьДавлениеВетер, м/сВероятность осадков
    00:00Ясно и безоблачно+13°C69 %757 мм2.3 м/с2 %
    03:00Ясно и безоблачно+11°C79 %756 мм2.3 м/с2 %
    06:00Ясно и безоблачно+11°C81 %756 мм2.2 м/с4 %
    09:00Облачно с прояснениями+17°C64 %757 мм1.4 м/с2 %
    12:00Облачно с прояснениями+22°C40 %757 мм2.3 м/с3 %
    15:00Небольшая облачность+23°C39 %757 мм2.0 м/с3 %
    18:00Ясно и безоблачно+23°C40 %756 мм1.8 м/с4 %
    21:00Ясно и безоблачно+17°C68 %756 мм2.6 м/с2 %
Мы используем cookies
Соглашаюсь